Terminal Aerodrome Forecast
Issued by NWS

Home | Current Version | Previous Version | Graphics & Text | Print | Product List | Glossary On
Versions: 1 2 3 4 5 6 7 8 9 10 11 12 13 14 15 16 17 18
336
FTUS43 KGRB 061140
TAFAUW
TAF
KAUW 061140Z 0612/0712 24007KT 5SM BR OVC008
      TEMPO 0612/0615 2SM BR OVC004
     FM061500 24008KT P6SM BKN009
      TEMPO 0615/0618 BKN015
     FM062300 19006KT P6SM BKN020
     FM070100 20011KT P6SM SCT020 OVC050=

USA.gov is the U.S. government's official web portal to all federal, state and local government web resources and services.